Time;durP1;ratioP1;P1;durP2;ratioP2;P2;SDS_P1;SDS_P2;PMS_P1;PMS_P2;Temp;Humidity;BMP_temperature;BMP_pressure;BME280_temperature;BME280_humidity;BME280_pressure;Samples;Min_cycle;Max_cycle;Signal;HPM_P1;HPM_P2
2022/01/13 00:01:00;;;;;;;4.30;1.47;;;3.30;99.90;2.40;103995.00;;;;5136714;27;20167;-66
2022/01/13 00:03:32;;;;;;;0.40;0.40;;;3.00;99.90;2.30;103956.00;;;;5135603;27;20168;-67
2022/01/13 00:06:03;;;;;;;0.70;0.70;;;2.80;99.90;2.40;103960.00;;;;5137159;27;20199;-66
2022/01/13 00:08:36;;;;;;;0.70;0.70;;;2.80;99.90;2.70;103933.00;;;;5135846;27;20576;-66
2022/01/13 00:11:08;;;;;;;1.27;1.27;;;2.90;99.90;2.90;103986.00;;;;5135466;27;20178;-66
2022/01/13 00:17:06;;;;;;;0.60;0.60;;;2.90;99.90;2.80;103990.00;;;;5073030;28;20189;-66
2022/01/13 00:24:52;;;;;;;2.70;2.50;;;2.60;99.90;2.00;103990.00;;;;5135527;27;20266;-66
2022/01/13 00:27:18;;;;;;;1.50;1.40;;;2.50;99.90;2.50;103985.00;;;;5135257;27;20262;-66
2022/01/13 00:29:45;;;;;;;1.43;1.33;;;2.80;99.90;2.50;103983.00;;;;5134909;27;20696;-67
2022/01/13 00:32:21;;;;;;;1.33;1.23;;;2.90;99.90;2.30;103978.00;;;;5136545;27;20207;-67
2022/01/13 00:34:47;;;;;;;3.60;2.77;;;2.80;99.90;2.60;103987.00;;;;5136129;27;20175;-66
2022/01/13 00:37:13;;;;;;;1.60;0.97;;;2.80;99.90;1.70;103981.00;;;;5136417;27;20167;-66
2022/01/13 00:39:45;;;;;;;3.00;2.77;;;2.50;99.90;1.90;103979.00;;;;5135026;27;20179;-66
2022/01/13 00:42:13;;;;;;;3.43;3.13;;;2.50;99.90;1.60;103978.00;;;;5135056;27;20171;-66
2022/01/13 00:44:43;;;;;;;2.47;1.20;;;2.30;99.90;1.50;103982.00;;;;5135829;27;20207;-67
2022/01/13 00:47:16;;;;;;;5.30;4.20;;;2.30;99.90;1.50;103958.00;;;;5134658;27;20167;-66
2022/01/13 00:49:44;;;;;;;3.20;3.00;;;2.20;99.90;1.60;103986.00;;;;5134605;27;20203;-66
2022/01/13 00:52:15;;;;;;;3.73;3.13;;;2.20;99.90;2.10;103985.00;;;;5117627;27;20200;-65
2022/01/13 00:54:46;;;;;;;2.87;2.67;;;2.30;99.90;1.80;103991.00;;;;5133728;27;20217;-65
2022/01/13 00:57:14;;;;;;;0.70;0.70;;;2.40;99.90;1.90;103995.00;;;;5134287;27;20530;-66
2022/01/13 00:59:46;;;;;;;0.63;0.63;;;2.40;99.90;1.80;103997.00;;;;5134555;27;20822;-65
2022/01/13 01:02:20;;;;;;;1.40;1.40;;;2.40;99.90;1.70;103998.00;;;;5134398;27;20513;-65
2022/01/13 01:04:54;;;;;;;3.60;1.43;;;2.30;99.90;1.60;103999.00;;;;5134442;27;20167;-65
2022/01/13 01:07:25;;;;;;;0.60;0.60;;;2.30;99.90;2.50;103969.00;;;;5134401;27;20170;-65
2022/01/13 01:09:58;;;;;;;0.30;0.30;;;2.60;99.90;3.00;104000.00;;;;5134243;27;20172;-65
2022/01/13 01:12:32;;;;;;;0.40;0.40;;;2.90;99.90;2.60;104007.00;;;;5135175;27;20649;-65
2022/01/13 01:15:04;;;;;;;1.57;1.57;;;2.90;99.90;2.40;104004.00;;;;5134019;27;20197;-65
2022/01/13 01:17:45;;;;;;;1.33;1.33;;;2.70;99.90;2.70;104007.00;;;;5135818;27;20187;-65
2022/01/13 01:20:20;;;;;;;0.90;0.90;;;2.80;99.90;2.40;104002.00;;;;5134231;27;20554;-65
2022/01/13 01:23:04;;;;;;;5.40;4.90;;;2.70;99.90;2.10;104004.00;;;;5135294;27;20159;-65
2022/01/13 01:25:43;;;;;;;1.70;1.67;;;2.50;99.90;2.80;104000.00;;;;5116879;27;20182;-65
2022/01/13 01:28:23;;;;;;;0.40;0.40;;;2.80;99.90;2.30;103999.00;;;;5135014;27;20596;-66
2022/01/13 01:30:55;;;;;;;0.40;0.40;;;2.70;99.90;3.10;103982.00;;;;5133669;27;20179;-66
2022/01/13 01:33:26;;;;;;;1.47;1.37;;;2.90;99.90;2.80;104001.00;;;;5135273;27;20262;-65
2022/01/13 01:35:56;;;;;;;0.60;0.60;;;3.00;99.90;3.20;103954.00;;;;5116742;27;20179;-65
2022/01/13 01:38:28;;;;;;;0.50;0.50;;;3.10;99.90;3.10;103986.00;;;;5133893;27;20207;-65
2022/01/13 01:40:53;;;;;;;0.93;0.93;;;3.20;99.90;2.60;103994.00;;;;5134794;27;20189;-65
2022/01/13 01:43:19;;;;;;;1.10;1.10;;;3.00;99.90;2.10;103981.00;;;;5134685;27;20270;-66
2022/01/13 01:45:54;;;;;;;2.67;2.00;;;2.60;99.90;2.20;103992.00;;;;5134824;27;20179;-65
2022/01/13 01:48:28;;;;;;;4.27;2.57;;;2.60;99.90;2.30;103988.00;;;;5135309;27;20717;-65
2022/01/13 01:50:59;;;;;;;4.60;1.63;;;2.80;99.90;2.70;103980.00;;;;5134548;27;20175;-65
2022/01/13 01:53:31;;;;;;;1.60;1.50;;;2.80;99.90;2.20;103976.00;;;;5134718;27;20164;-65
2022/01/13 01:55:57;;;;;;;0.60;0.60;;;2.60;99.90;1.90;103927.00;;;;5134409;27;20232;-65
2022/01/13 01:58:31;;;;;;;2.00;1.27;;;2.50;99.90;2.40;103940.00;;;;5133427;27;20634;-65
2022/01/13 02:01:03;;;;;;;0.60;0.60;;;2.60;99.90;2.80;103929.00;;;;5133384;27;20182;-64
2022/01/13 02:03:34;;;;;;;4.63;2.30;;;2.80;99.90;2.20;103979.00;;;;5134639;27;20191;-65
2022/01/13 02:06:05;;;;;;;0.40;0.40;;;2.60;99.90;2.70;103975.00;;;;5133165;27;20618;-65
2022/01/13 02:08:36;;;;;;;0.50;0.50;;;2.70;99.90;3.00;103975.00;;;;5134394;27;20258;-65
2022/01/13 02:11:08;;;;;;;0.70;0.70;;;3.10;99.90;2.90;103978.00;;;;5132797;27;20159;-65
2022/01/13 02:13:47;;;;;;;0.50;0.50;;;3.00;99.90;3.20;103975.00;;;;5116381;27;20187;-65
2022/01/13 02:19:01;;;;;;;2.53;1.27;;;3.20;99.90;2.50;103953.00;;;;5134346;27;20175;-64
2022/01/13 02:21:32;;;;;;;2.17;1.83;;;2.80;99.90;2.70;103962.00;;;;5133313;27;20258;-64
2022/01/13 02:24:03;;;;;;;4.20;3.17;;;2.80;99.90;3.30;103962.00;;;;5133152;27;20243;-65
2022/01/13 02:26:35;;;;;;;1.60;0.70;;;3.20;99.90;2.50;103965.00;;;;5132824;27;20676;-65
2022/01/13 02:29:06;;;;;;;1.43;0.63;;;2.90;99.90;2.10;103954.00;;;;5134336;27;20237;-65
2022/01/13 02:31:37;;;;;;;0.73;0.73;;;2.70;99.90;2.40;103970.00;;;;5132547;28;20233;-65
2022/01/13 02:34:11;;;;;;;0.40;0.40;;;2.70;99.90;2.30;103958.00;;;;5134427;28;20178;-65
2022/01/13 02:36:45;;;;;;;0.47;0.47;;;2.60;99.90;2.00;103916.00;;;;5133456;28;20199;-65
2022/01/13 02:39:19;;;;;;;0.30;0.30;;;2.50;99.90;2.20;103975.00;;;;5132601;28;20678;-65
2022/01/13 02:41:50;;;;;;;0.40;0.40;;;2.50;99.90;2.10;103984.00;;;;5132909;28;20172;-65
2022/01/13 02:44:25;;;;;;;3.33;3.03;;;2.60;99.90;2.20;103960.00;;;;5133167;28;20168;-65
2022/01/13 02:47:10;;;;;;;0.40;0.40;;;2.50;99.90;2.00;103971.00;;;;5132846;28;20175;-66
2022/01/13 02:49:41;;;;;;;0.67;0.67;;;2.50;99.90;2.10;103956.00;;;;5133226;28;20663;-66
2022/01/13 02:52:07;;;;;;;0.40;0.40;;;2.50;99.90;2.10;103959.00;;;;5132778;28;20188;-66
2022/01/13 02:54:38;;;;;;;1.27;0.83;;;2.50;99.90;2.10;103964.00;;;;5133810;28;20180;-65
2022/01/13 02:57:09;;;;;;;0.40;0.40;;;2.50;99.90;1.90;103959.00;;;;5134252;28;20597;-65
2022/01/13 02:59:38;;;;;;;0.70;0.70;;;2.50;99.90;2.30;103969.00;;;;5134215;28;20203;-65
2022/01/13 03:02:12;;;;;;;0.50;0.50;;;2.50;99.90;2.70;103970.00;;;;5133919;28;20194;-65
2022/01/13 03:04:47;;;;;;;0.40;0.40;;;2.70;99.90;2.50;103976.00;;;;5134018;28;20194;-66
2022/01/13 03:07:16;;;;;;;1.30;1.30;;;2.70;99.90;2.10;103965.00;;;;5132987;28;20175;-66
2022/01/13 03:09:44;;;;;;;0.40;0.40;;;2.60;99.90;2.10;103957.00;;;;5132789;28;20210;-66
2022/01/13 03:12:13;;;;;;;1.47;1.37;;;2.50;99.90;2.10;103951.00;;;;5134021;28;20303;-65
2022/01/13 03:14:39;;;;;;;0.70;0.70;;;2.50;99.90;2.10;103921.00;;;;5132895;28;20175;-66
2022/01/13 03:17:13;;;;;;;0.40;0.40;;;2.50;99.90;2.30;103905.00;;;;5133928;27;20657;-66
2022/01/13 03:19:44;;;;;;;0.50;0.50;;;2.50;99.90;2.20;103915.00;;;;5136208;27;20194;-66
2022/01/13 03:22:14;;;;;;;0.40;0.40;;;2.50;99.90;2.50;103946.00;;;;5136202;27;20244;-65
2022/01/13 03:24:43;;;;;;;0.97;0.97;;;2.70;99.90;2.50;103951.00;;;;5136568;27;20159;-65
2022/01/13 03:27:19;;;;;;;8.77;6.43;;;2.70;99.90;2.20;103889.00;;;;5137534;27;20179;-65
2022/01/13 03:29:48;;;;;;;0.40;0.40;;;2.60;99.90;2.30;103889.00;;;;5136811;27;20196;-66
2022/01/13 03:32:18;;;;;;;4.13;3.13;;;2.60;99.90;2.10;103952.00;;;;5136203;27;20207;-65
2022/01/13 03:34:49;;;;;;;0.40;0.40;;;2.50;99.90;2.30;103941.00;;;;5137789;27;20178;-65
2022/01/13 03:37:15;;;;;;;1.23;1.23;;;2.50;99.90;1.80;103930.00;;;;5136439;27;20163;-65
2022/01/13 03:39:41;;;;;;;3.30;3.00;;;2.50;99.90;1.50;103946.00;;;;5119038;27;20179;-65
2022/01/13 03:42:10;;;;;;;2.00;1.70;;;2.20;99.90;1.70;103944.00;;;;5118761;27;20634;-65
2022/01/13 03:44:44;;;;;;;1.43;1.43;;;2.20;99.90;2.00;103939.00;;;;5118795;27;20626;-65
2022/01/13 03:47:15;;;;;;;2.43;2.23;;;2.30;99.90;2.30;103932.00;;;;5136072;27;20178;-66
2022/01/13 03:49:47;;;;;;;1.57;1.47;;;2.60;99.90;2.60;103943.00;;;;5119144;27;20229;-65
2022/01/13 03:53:03;;;;;;;0.60;0.60;;;2.80;99.90;1.60;103931.00;;;;5135600;27;21039;-65
2022/01/13 03:55:35;;;;;;;0.70;0.70;;;2.30;99.90;1.50;103886.00;;;;5137127;27;20610;-65
2022/01/13 03:58:41;;;;;;;2.83;1.70;;;2.10;99.90;1.60;103944.00;;;;5137072;27;20630;-65
2022/01/13 04:01:55;;;;;;;0.63;0.63;;;2.20;99.90;1.70;103935.00;;;;5135754;27;20219;-65
2022/01/13 04:04:30;;;;;;;4.80;4.33;;;2.10;99.90;2.20;103930.00;;;;5137006;27;20168;-65
2022/01/13 04:07:28;;;;;;;0.60;0.60;;;2.40;99.90;1.90;103937.00;;;;5135262;27;20183;-65
2022/01/13 04:09:54;;;;;;;0.43;0.43;;;2.30;99.90;2.50;103937.00;;;;5136384;27;20214;-66
2022/01/13 04:12:25;;;;;;;0.30;0.30;;;2.50;99.90;2.30;103939.00;;;;5136595;27;20199;-66
2022/01/13 04:14:58;;;;;;;0.60;0.60;;;2.60;99.90;1.80;103927.00;;;;5136795;27;20183;-66
2022/01/13 04:17:30;;;;;;;0.40;0.40;;;2.40;99.90;2.00;103936.00;;;;5135395;27;20179;-65
2022/01/13 04:20:02;;;;;;;0.40;0.40;;;2.30;99.90;1.70;103901.00;;;;5137156;27;20218;-66
2022/01/13 04:22:35;;;;;;;0.40;0.40;;;2.20;99.90;2.40;103927.00;;;;5135720;27;20212;-65
2022/01/13 04:25:07;;;;;;;0.63;0.63;;;2.50;99.90;1.90;103900.00;;;;5136753;27;20672;-65
2022/01/13 04:27:43;;;;;;;0.40;0.40;;;2.40;99.90;2.10;103917.00;;;;5135208;27;20700;-65
2022/01/13 04:32:42;;;;;;;1.27;0.80;;;2.50;99.90;2.10;103923.00;;;;5135253;27;20677;-66
2022/01/13 04:35:10;;;;;;;0.50;0.50;;;2.40;99.90;2.40;103909.00;;;;5134775;27;20231;-66
2022/01/13 04:37:42;;;;;;;0.40;0.40;;;2.60;99.90;2.40;103935.00;;;;5136244;27;20622;-65
2022/01/13 04:40:09;;;;;;;0.80;0.80;;;2.60;99.90;2.50;103933.00;;;;5135022;27;20192;-67
2022/01/13 04:42:36;;;;;;;1.90;1.80;;;2.60;99.90;2.10;103924.00;;;;5135159;27;20503;-67
2022/01/13 04:45:05;;;;;;;0.60;0.60;;;2.50;99.90;1.80;103925.00;;;;5134971;27;20172;-67
2022/01/13 04:47:34;;;;;;;0.73;0.73;;;2.30;99.90;1.90;103924.00;;;;5136440;27;20182;-66
2022/01/13 04:50:02;;;;;;;0.40;0.40;;;2.30;99.90;1.90;103925.00;;;;5117289;27;20180;-67
2022/01/13 04:52:36;;;;;;;1.70;1.60;;;2.20;99.90;2.20;103937.00;;;;5134796;27;20286;-67
2022/01/13 04:55:10;;;;;;;2.10;1.33;;;2.30;99.90;2.10;103889.00;;;;5135628;27;20191;-67
2022/01/13 04:57:42;;;;;;;0.50;0.50;;;2.30;99.90;1.70;103939.00;;;;5134996;27;20171;-67
2022/01/13 05:00:11;;;;;;;0.50;0.50;;;2.10;99.90;2.10;103937.00;;;;5135804;27;20191;-66
2022/01/13 05:02:40;;;;;;;1.73;1.63;;;2.30;99.90;2.20;103949.00;;;;5134411;27;20191;-67
2022/01/13 05:05:06;;;;;;;1.60;1.43;;;2.40;99.90;2.00;103938.00;;;;5135420;27;20228;-67
2022/01/13 05:07:38;;;;;;;1.37;1.33;;;2.30;99.90;1.70;103939.00;;;;5134379;27;20233;-67
2022/01/13 05:10:08;;;;;;;2.00;1.60;;;2.20;99.90;2.10;103938.00;;;;5134343;27;20258;-66
2022/01/13 05:12:45;;;;;;;1.07;1.07;;;2.20;99.90;1.70;103935.00;;;;5117395;27;20234;-66
2022/01/13 05:15:18;;;;;;;0.90;0.90;;;2.20;99.90;1.70;103931.00;;;;5117158;27;20578;-66
2022/01/13 05:20:20;;;;;;;1.33;1.33;;;2.10;99.90;1.60;103925.00;;;;5133872;27;20183;-66
2022/01/13 05:22:48;;;;;;;1.03;1.03;;;2.10;99.90;2.10;103932.00;;;;5135314;27;20186;-66
2022/01/13 05:25:20;;;;;;;0.50;0.50;;;2.30;99.90;2.00;103921.00;;;;5135840;27;20224;-66
2022/01/13 05:27:52;;;;;;;1.07;1.07;;;2.30;99.90;2.40;103936.00;;;;5134247;27;20203;-66
2022/01/13 05:30:26;;;;;;;1.20;1.20;;;2.50;99.90;2.60;103944.00;;;;5122428;27;20207;-66
2022/01/13 05:32:57;;;;;;;0.90;0.90;;;2.60;99.90;2.00;103935.00;;;;5112534;28;20230;-66
2022/01/13 05:35:26;;;;;;;0.70;0.70;;;2.40;99.90;1.90;103939.00;;;;5110319;28;20619;-66
2022/01/13 05:38:00;;;;;;;1.23;1.23;;;2.30;99.90;1.90;103938.00;;;;5094234;28;20272;-66
2022/01/13 05:40:28;;;;;;;1.80;1.70;;;2.20;99.90;1.50;103936.00;;;;5109204;28;20161;-65
2022/01/13 05:42:59;;;;;;;0.67;0.67;;;2.10;99.90;2.10;103941.00;;;;5093800;28;20200;-66
2022/01/13 05:45:33;;;;;;;0.90;0.90;;;2.20;99.90;1.80;103943.00;;;;5094182;28;20244;-66
2022/01/13 05:48:06;;;;;;;0.93;0.93;;;2.20;99.90;1.60;103934.00;;;;5111704;28;20192;-66
2022/01/13 05:50:37;;;;;;;0.60;0.60;;;2.10;99.90;1.30;103929.00;;;;5114195;28;20195;-66
2022/01/13 05:53:08;;;;;;;1.10;1.10;;;1.90;99.90;1.40;103931.00;;;;5114271;28;20214;-66
2022/01/13 05:55:34;;;;;;;1.00;0.97;;;1.80;99.90;1.40;103924.00;;;;5095904;28;20287;-67
2022/01/13 05:58:06;;;;;;;1.00;1.00;;;1.90;99.90;1.40;103921.00;;;;5114606;28;20273;-66
2022/01/13 06:00:37;;;;;;;0.40;0.40;;;1.90;99.90;1.70;103929.00;;;;5096029;28;20176;-67
2022/01/13 06:03:09;;;;;;;0.90;0.90;;;2.00;99.90;1.80;103936.00;;;;5113734;28;20192;-66
2022/01/13 06:05:41;;;;;;;0.50;0.50;;;2.10;99.90;1.20;103879.00;;;;5095654;28;20178;-66
2022/01/13 06:08:07;;;;;;;2.40;1.87;;;1.80;99.90;1.40;103936.00;;;;5112744;28;20184;-66
2022/01/13 06:10:42;;;;;;;0.50;0.50;;;1.90;99.90;1.80;103936.00;;;;5080717;28;20199;-65
2022/01/13 06:13:16;;;;;;;0.40;0.40;;;2.00;99.90;1.80;103941.00;;;;5093593;28;20235;-65
2022/01/13 06:15:50;;;;;;;1.20;1.20;;;2.00;99.90;2.30;103891.00;;;;5059024;28;20207;-65
2022/01/13 06:18:25;;;;;;;0.50;0.50;;;2.40;99.90;2.70;103907.00;;;;5093385;28;20216;-66
2022/01/13 06:20:56;;;;;;;0.50;0.50;;;2.50;99.90;3.00;103945.00;;;;5093618;28;20187;-65
2022/01/13 06:23:27;;;;;;;1.20;1.20;;;2.80;99.90;2.30;103942.00;;;;5093654;28;20195;-65
2022/01/13 06:25:58;;;;;;;0.70;0.70;;;2.70;99.90;1.70;103906.00;;;;5075583;28;20217;-65
2022/01/13 06:28:29;;;;;;;0.50;0.50;;;2.30;99.90;1.70;103929.00;;;;5075882;28;20176;-65
2022/01/13 06:30:55;;;;;;;2.60;2.40;;;2.10;99.90;1.70;103896.00;;;;5093013;28;20181;-66
2022/01/13 06:34:02;;;;;;;0.50;0.50;;;2.10;99.90;1.90;103935.00;;;;5093588;28;20211;-65
2022/01/13 06:36:36;;;;;;;4.17;3.90;;;2.10;99.90;1.60;103938.00;;;;5075318;28;20280;-65
2022/01/13 06:39:05;;;;;;;3.80;3.60;;;2.00;99.90;1.70;103936.00;;;;5075679;28;20184;-65
2022/01/13 06:41:38;;;;;;;0.60;0.60;;;2.00;99.90;1.90;103937.00;;;;5092995;28;20181;-65
2022/01/13 06:44:10;;;;;;;1.60;1.27;;;2.00;99.90;1.70;103927.00;;;;5093610;28;20169;-65
2022/01/13 06:46:41;;;;;;;1.87;1.77;;;2.10;99.90;1.50;103915.00;;;;5074971;28;20185;-65
2022/01/13 06:49:15;;;;;;;3.03;2.57;;;1.90;99.90;1.40;103931.00;;;;5093364;28;20173;-65
2022/01/13 06:51:46;;;;;;;1.03;0.87;;;1.80;99.90;1.30;103901.00;;;;5091816;28;20595;-65
2022/01/13 06:54:17;;;;;;;0.50;0.50;;;1.80;99.90;1.40;103933.00;;;;5096424;28;20623;-66
2022/01/13 06:56:52;;;;;;;0.50;0.50;;;1.90;99.90;1.60;103925.00;;;;5079369;28;20173;-64
2022/01/13 06:59:23;;;;;;;0.40;0.40;;;2.00;99.90;1.50;103932.00;;;;5079322;28;20209;-65
2022/01/13 07:02:00;;;;;;;1.20;1.10;;;1.90;99.90;1.60;103936.00;;;;5089062;28;20203;-65
2022/01/13 07:04:40;;;;;;;0.60;0.60;;;1.90;99.90;2.20;103937.00;;;;5095341;28;20542;-64
2022/01/13 07:07:11;;;;;;;0.50;0.50;;;2.10;99.90;2.90;103886.00;;;;5096994;28;20173;-65
2022/01/13 07:09:45;;;;;;;0.70;0.70;;;2.50;99.90;2.50;103933.00;;;;5097127;28;20172;-65
2022/01/13 07:12:19;;;;;;;7.00;3.70;;;2.60;99.90;1.70;103928.00;;;;5097028;28;20286;-64
2022/01/13 07:14:50;;;;;;;0.70;0.70;;;2.20;99.90;1.20;103930.00;;;;5112004;28;20173;-65
2022/01/13 07:17:16;;;;;;;2.03;1.93;;;1.90;99.90;1.20;103924.00;;;;5096865;28;20198;-65
2022/01/13 07:19:51;;;;;;;4.60;3.50;;;1.80;99.90;1.50;103937.00;;;;5095992;28;20189;-65
2022/01/13 07:22:26;;;;;;;1.83;1.73;;;1.80;99.90;1.40;103928.00;;;;5112597;28;20180;-65
2022/01/13 07:24:57;;;;;;;0.80;0.80;;;1.80;99.90;1.30;103934.00;;;;5096694;28;20604;-65
2022/01/13 07:27:29;;;;;;;1.50;1.43;;;1.90;99.90;1.60;103952.00;;;;5112922;28;20192;-65
2022/01/13 07:30:03;;;;;;;4.53;4.13;;;1.90;99.90;2.00;103889.00;;;;5096480;28;20184;-65
2022/01/13 07:32:37;;;;;;;4.17;2.40;;;2.10;99.90;1.20;103952.00;;;;5096531;28;20683;-65
2022/01/13 07:35:11;;;;;;;7.00;3.57;;;1.90;99.90;1.50;103947.00;;;;5078642;28;20195;-65
2022/01/13 07:37:42;;;;;;;4.80;3.50;;;1.90;99.90;1.50;103949.00;;;;5096305;28;20638;-67
2022/01/13 07:40:15;;;;;;;5.33;2.57;;;1.90;99.90;1.60;103951.00;;;;5094752;28;20276;-65
2022/01/13 07:42:53;;;;;;;0.40;0.40;;;1.90;99.90;1.00;103948.00;;;;5096385;28;20165;-66
2022/01/13 07:45:18;;;;;;;1.37;1.33;;;1.60;99.90;0.90;103946.00;;;;5094284;28;20195;-65
2022/01/13 07:47:45;;;;;;;10.60;6.37;;;1.50;99.90;1.40;103906.00;;;;5111997;28;20181;-65
2022/01/13 07:50:15;;;;;;;2.20;1.43;;;1.70;99.90;1.20;103900.00;;;;5112114;28;20173;-65
2022/01/13 07:52:42;;;;;;;0.57;0.57;;;1.70;99.90;1.30;103956.00;;;;5111815;28;20205;-66
2022/01/13 07:55:10;;;;;;;0.70;0.70;;;1.70;99.90;1.70;103958.00;;;;5096328;28;20169;-66
2022/01/13 07:57:36;;;;;;;4.10;2.20;;;1.90;99.90;1.80;103959.00;;;;5094862;28;20650;-67
2022/01/13 08:00:11;;;;;;;0.63;0.63;;;2.00;99.90;2.00;103954.00;;;;5111941;28;20169;-66
2022/01/13 08:02:45;;;;;;;0.53;0.53;;;2.10;99.90;1.50;103958.00;;;;5095784;28;20188;-66
2022/01/13 08:05:16;;;;;;;0.40;0.40;;;2.00;99.90;2.30;103943.00;;;;5111023;28;20176;-66
2022/01/13 08:07:48;;;;;;;0.50;0.50;;;2.10;99.90;2.00;103950.00;;;;5094892;28;20189;-66
2022/01/13 08:10:19;;;;;;;0.80;0.80;;;2.30;99.90;1.60;103916.00;;;;5111734;28;20185;-66
2022/01/13 08:12:49;;;;;;;1.70;1.13;;;2.10;99.90;1.60;103941.00;;;;5111347;28;20565;-66
2022/01/13 08:15:15;;;;;;;2.20;2.10;;;2.00;99.90;1.60;103935.00;;;;5111667;28;20253;-66
2022/01/13 08:20:40;;;;;;;0.50;0.50;;;2.10;99.90;2.80;103933.00;;;;5109442;28;20233;-64
2022/01/13 08:23:09;;;;;;;0.60;0.60;;;2.60;99.90;2.60;103924.00;;;;5094697;28;20264;-66
2022/01/13 08:25:46;;;;;;;0.90;0.90;;;2.60;99.90;1.80;103929.00;;;;5111282;28;20185;-65
2022/01/13 08:28:14;;;;;;;0.60;0.60;;;2.30;99.90;2.10;103929.00;;;;5095397;28;20777;-66
2022/01/13 08:30:46;;;;;;;0.70;0.70;;;2.20;99.90;2.40;103933.00;;;;5095726;28;20183;-64
2022/01/13 08:33:18;;;;;;;0.60;0.60;;;2.40;99.90;2.60;103933.00;;;;5095443;28;20220;-65
2022/01/13 08:35:53;;;;;;;0.60;0.60;;;2.50;99.90;2.10;103873.00;;;;5111268;28;20193;-65
2022/01/13 08:38:24;;;;;;;1.33;1.33;;;2.40;99.90;1.40;103935.00;;;;5111411;28;20168;-63
2022/01/13 08:40:56;;;;;;;0.80;0.80;;;2.10;99.90;1.40;103931.00;;;;5110782;28;20164;-64
2022/01/13 08:43:26;;;;;;;5.43;2.23;;;1.90;99.90;1.30;103927.00;;;;5094839;28;20230;-64
2022/01/13 08:45:52;;;;;;;3.93;3.53;;;1.80;99.90;1.00;103912.00;;;;5095379;28;20238;-64
2022/01/13 08:48:19;;;;;;;0.53;0.53;;;1.70;99.90;1.70;103923.00;;;;5112205;28;20240;-66
2022/01/13 08:50:46;;;;;;;1.20;1.20;;;1.80;99.90;2.20;103937.00;;;;5093406;28;20190;-63
2022/01/13 08:53:27;;;;;;;0.83;0.83;;;2.20;99.90;1.80;103930.00;;;;5097320;28;20644;-64
2022/01/13 08:56:06;;;;;;;1.07;1.07;;;2.20;99.90;2.10;103907.00;;;;5098037;28;20192;-65
2022/01/13 08:58:37;;;;;;;0.97;0.90;;;2.30;99.90;2.20;103926.00;;;;5115643;28;20171;-65
2022/01/13 09:01:12;;;;;;;0.87;0.87;;;2.50;99.90;2.10;103915.00;;;;5114983;28;20188;-65
2022/01/13 09:03:53;;;;;;;2.93;2.30;;;2.30;99.90;2.90;103933.00;;;;5096655;28;20692;-63
2022/01/13 09:06:24;;;;;;;2.03;1.27;;;2.60;99.90;2.80;103941.00;;;;5095213;28;20180;-64
2022/01/13 09:08:53;;;;;;;1.00;1.00;;;2.90;99.90;1.90;103940.00;;;;5103532;28;20238;-64
2022/01/13 09:11:19;;;;;;;12.33;10.03;;;2.40;99.90;1.80;103936.00;;;;5076472;28;20197;-64
2022/01/13 09:13:55;;;;;;;1.13;1.13;;;2.40;99.90;1.80;103950.00;;;;5075521;28;20242;-64
2022/01/13 09:16:24;;;;;;;0.57;0.57;;;2.20;99.90;2.10;103915.00;;;;5093764;28;20638;-65
2022/01/13 09:21:28;;;;;;;1.07;1.07;;;2.30;99.90;2.20;103968.00;;;;5093550;28;20196;-65
2022/01/13 09:24:02;;;;;;;1.27;1.17;;;2.30;99.90;2.30;103958.00;;;;5076301;28;20177;-64
2022/01/13 09:26:30;;;;;;;0.77;0.77;;;2.40;99.90;2.10;103966.00;;;;5094564;28;20164;-64
2022/01/13 09:29:06;;;;;;;0.60;0.60;;;2.40;99.90;2.10;103969.00;;;;5076582;28;20173;-64
2022/01/13 09:31:38;;;;;;;1.67;1.67;;;2.40;99.90;2.30;103961.00;;;;5101554;28;20304;-64
2022/01/13 09:34:09;;;;;;;0.70;0.70;;;2.40;99.90;2.10;103967.00;;;;5105224;28;20192;-67
2022/01/13 09:36:36;;;;;;;0.73;0.73;;;2.40;99.90;2.00;103965.00;;;;5076841;28;20523;-65
2022/01/13 09:39:08;;;;;;;1.57;1.50;;;2.40;99.90;2.40;103966.00;;;;5075962;28;20217;-63
2022/01/13 09:41:38;;;;;;;1.73;1.73;;;2.50;99.90;2.50;103958.00;;;;5101807;28;20561;-63
2022/01/13 09:44:08;;;;;;;1.33;1.33;;;2.60;99.90;2.90;103961.00;;;;5114623;28;20207;-63
2022/01/13 09:46:47;;;;;;;2.13;2.03;;;2.70;99.90;2.70;103958.00;;;;5091613;28;20233;-63
2022/01/13 09:49:13;;;;;;;6.03;5.73;;;3.00;99.90;2.90;103960.00;;;;5113786;28;20171;-62
2022/01/13 09:51:44;;;;;;;0.70;0.70;;;3.00;99.90;2.40;103951.00;;;;5095791;28;20210;-63
2022/01/13 09:54:14;;;;;;;0.80;0.80;;;2.80;99.90;3.40;103970.00;;;;5095918;28;20168;-63
2022/01/13 09:56:45;;;;;;;11.80;6.00;;;3.10;99.90;2.40;103976.00;;;;5113526;28;20172;-63
2022/01/13 09:59:14;;;;;;;1.40;1.40;;;3.00;99.90;2.80;103976.00;;;;5113713;28;20212;-63
2022/01/13 10:01:43;;;;;;;0.70;0.70;;;3.00;99.90;3.10;103985.00;;;;5113491;28;20218;-63
2022/01/13 10:04:18;;;;;;;2.50;2.40;;;3.30;99.90;2.90;103991.00;;;;5114298;28;20180;-62
2022/01/13 10:06:50;;;;;;;1.83;1.73;;;3.20;99.90;2.80;103995.00;;;;5096069;28;20593;-63
2022/01/13 10:09:16;;;;;;;0.70;0.70;;;3.10;99.90;2.10;103965.00;;;;5089622;28;20199;-63
2022/01/13 10:11:54;;;;;;;0.70;0.70;;;2.80;99.90;2.30;103996.00;;;;5075946;28;20559;-63
2022/01/13 10:16:59;;;;;;;5.17;4.90;;;3.00;99.90;3.10;103999.00;;;;5075251;28;20179;-63
2022/01/13 10:19:45;;;;;;;0.70;0.70;;;3.10;99.90;3.80;104001.00;;;;5094407;28;20192;-63
2022/01/13 10:33:30;;;;;;;0.53;0.53;;;2.80;99.90;2.30;104002.00;;;;5111384;27;20565;-63
2022/01/13 10:36:08;;;;;;;0.57;0.57;;;2.80;99.90;3.00;104008.00;;;;5087983;28;20274;-63
2022/01/13 10:38:57;;;;;;;2.90;1.53;;;3.10;99.90;3.20;103967.00;;;;5090904;28;20270;-64
2022/01/13 10:44:23;;;;;;;0.60;0.60;;;3.30;99.90;3.30;103988.00;;;;5070690;28;20185;-63
2022/01/13 10:47:04;;;;;;;1.60;1.60;;;3.30;99.90;3.70;103953.00;;;;5089592;28;20184;-63
2022/01/13 10:49:36;;;;;;;0.60;0.60;;;3.40;99.90;3.70;103952.00;;;;5088465;28;20251;-64
2022/01/13 10:52:27;;;;;;;4.10;3.83;;;3.80;99.90;3.80;103979.00;;;;5089627;28;20205;-63
2022/01/13 10:55:03;;;;;;;3.13;1.80;;;3.80;99.90;3.50;103967.00;;;;5088690;28;20236;-63
2022/01/13 10:57:30;;;;;;;0.60;0.60;;;3.90;99.90;3.40;103973.00;;;;5090029;28;20192;-65
2022/01/13 10:59:59;;;;;;;0.70;0.70;;;3.60;99.90;3.50;103968.00;;;;5089844;28;20226;-62
2022/01/13 11:02:26;;;;;;;0.40;0.40;;;3.70;99.90;3.90;103979.00;;;;5089618;28;20518;-63
2022/01/13 11:04:54;;;;;;;0.50;0.50;;;3.70;99.90;3.30;103962.00;;;;5090183;28;20185;-63
2022/01/13 11:07:24;;;;;;;0.50;0.50;;;3.70;99.90;4.00;103969.00;;;;5089880;28;20173;-63
2022/01/13 11:09:57;;;;;;;0.50;0.50;;;3.90;99.90;3.70;103958.00;;;;5090043;28;20177;-64
2022/01/13 11:12:40;;;;;;;2.50;1.43;;;3.90;99.90;4.70;103958.00;;;;5089882;28;20276;-64
2022/01/13 11:15:14;;;;;;;1.07;1.07;;;4.30;99.90;3.50;103957.00;;;;5088756;28;20628;-63
2022/01/13 11:17:43;;;;;;;3.67;2.30;;;4.00;99.90;3.40;103961.00;;;;5089831;28;20265;-63
2022/01/13 11:20:15;;;;;;;3.63;3.43;;;3.70;99.90;4.20;103953.00;;;;5088878;28;20272;-63
2022/01/13 11:22:45;;;;;;;3.40;1.87;;;4.00;99.90;3.50;103954.00;;;;5088560;28;20169;-63
2022/01/13 11:25:15;;;;;;;5.60;5.10;;;3.90;99.90;3.70;103945.00;;;;5090146;28;20181;-63
2022/01/13 11:27:42;;;;;;;0.97;0.97;;;4.00;99.90;4.40;103954.00;;;;5088601;28;20178;-64
2022/01/13 11:30:20;;;;;;;2.57;2.47;;;4.20;99.90;3.50;103940.00;;;;5088382;28;20618;-63
2022/01/13 11:32:50;;;;;;;1.87;1.77;;;4.00;99.90;3.40;103946.00;;;;5088149;28;20216;-63
2022/01/13 11:35:45;;;;;;;0.73;0.73;;;3.80;99.90;3.90;103946.00;;;;5088192;28;20291;-65
2022/01/13 11:38:18;;;;;;;1.47;1.47;;;3.80;99.90;4.00;103943.00;;;;5089676;28;20173;-63
2022/01/13 11:41:05;;;;;;;3.63;2.00;;;4.00;99.90;3.70;103881.00;;;;5089799;28;20158;-64
2022/01/13 11:43:43;;;;;;;4.33;3.90;;;4.00;99.90;3.60;103934.00;;;;5081934;28;20174;-65
2022/01/13 11:46:24;;;;;;;0.67;0.67;;;4.00;99.90;4.70;103926.00;;;;5076257;28;20181;-62
2022/01/13 11:49:09;;;;;;;0.60;0.60;;;4.40;99.90;4.20;103915.00;;;;5075632;28;20172;-62
2022/01/13 11:51:58;;;;;;;0.73;0.73;;;4.50;99.90;5.10;103911.00;;;;5075813;28;20604;-62
2022/01/13 11:55:20;;;;;;;0.77;0.77;;;4.80;99.90;5.50;103927.00;;;;5075992;28;20173;-62
2022/01/13 11:58:41;;;;;;;;;;;;;;;;;;;;;
2022/01/13 12:01:23;;;;;;;1.33;1.20;;;4.90;99.90;4.40;103897.00;;;;5064830;28;20193;-62
2022/01/13 12:03:56;;;;;;;1.23;1.23;;;4.70;99.90;4.50;103901.00;;;;5075511;28;20181;-64
2022/01/13 12:06:49;;;;;;;1.23;1.23;;;4.50;99.90;4.30;103904.00;;;;5061160;28;20250;-63